sensor_id;sensor_type;location;lat;lon;timestamp;P1;durP1;ratioP1;P2;durP2;ratioP2
37905;SDS011;23739;51.448;6.674;2023-04-25T00:00:49;10.23;;;5.55;;
37905;SDS011;23739;51.448;6.674;2023-04-25T00:03:17;10.75;;;4.97;;
37905;SDS011;23739;51.448;6.674;2023-04-25T00:05:43;14.07;;;4.70;;
37905;SDS011;23739;51.448;6.674;2023-04-25T00:08:10;15.18;;;4.55;;
37905;SDS011;23739;51.448;6.674;2023-04-25T00:10:36;14.70;;;4.93;;
37905;SDS011;23739;51.448;6.674;2023-04-25T00:13:02;15.38;;;5.72;;
37905;SDS011;23739;51.448;6.674;2023-04-25T00:15:28;15.52;;;5.57;;
37905;SDS011;23739;51.448;6.674;2023-04-25T00:17:57;10.38;;;4.72;;
37905;SDS011;23739;51.448;6.674;2023-04-25T00:20:24;9.63;;;5.32;;
37905;SDS011;23739;51.448;6.674;2023-04-25T00:22:50;12.32;;;5.25;;
37905;SDS011;23739;51.448;6.674;2023-04-25T00:25:18;15.88;;;5.63;;
37905;SDS011;23739;51.448;6.674;2023-04-25T00:27:44;13.18;;;4.78;;
37905;SDS011;23739;51.448;6.674;2023-04-25T00:30:11;14.23;;;4.93;;
37905;SDS011;23739;51.448;6.674;2023-04-25T00:32:37;12.48;;;4.75;;
37905;SDS011;23739;51.448;6.674;2023-04-25T00:35:03;14.60;;;4.95;;
37905;SDS011;23739;51.448;6.674;2023-04-25T00:37:29;11.05;;;5.22;;
37905;SDS011;23739;51.448;6.674;2023-04-25T00:39:57;13.88;;;5.00;;
37905;SDS011;23739;51.448;6.674;2023-04-25T00:42:23;12.57;;;5.18;;
37905;SDS011;23739;51.448;6.674;2023-04-25T00:44:51;11.52;;;5.97;;
37905;SDS011;23739;51.448;6.674;2023-04-25T00:47:17;13.10;;;4.93;;
37905;SDS011;23739;51.448;6.674;2023-04-25T00:49:43;9.05;;;4.57;;
37905;SDS011;23739;51.448;6.674;2023-04-25T00:52:10;11.48;;;5.05;;
37905;SDS011;23739;51.448;6.674;2023-04-25T00:54:36;10.80;;;4.43;;
37905;SDS011;23739;51.448;6.674;2023-04-25T00:57:03;9.88;;;4.47;;
37905;SDS011;23739;51.448;6.674;2023-04-25T00:59:29;11.10;;;4.18;;
37905;SDS011;23739;51.448;6.674;2023-04-25T01:01:56;11.15;;;4.68;;
37905;SDS011;23739;51.448;6.674;2023-04-25T01:04:22;13.23;;;4.55;;
37905;SDS011;23739;51.448;6.674;2023-04-25T01:06:49;11.07;;;4.63;;
37905;SDS011;23739;51.448;6.674;2023-04-25T01:09:15;11.30;;;4.72;;
37905;SDS011;23739;51.448;6.674;2023-04-25T01:11:41;15.65;;;5.55;;
37905;SDS011;23739;51.448;6.674;2023-04-25T01:14:07;11.43;;;4.68;;
37905;SDS011;23739;51.448;6.674;2023-04-25T01:16:34;11.60;;;5.70;;
37905;SDS011;23739;51.448;6.674;2023-04-25T01:19:01;14.75;;;4.50;;
37905;SDS011;23739;51.448;6.674;2023-04-25T01:21:27;10.57;;;4.22;;
37905;SDS011;23739;51.448;6.674;2023-04-25T01:23:54;14.70;;;5.80;;
37905;SDS011;23739;51.448;6.674;2023-04-25T01:26:21;13.60;;;4.32;;
37905;SDS011;23739;51.448;6.674;2023-04-25T01:28:47;14.05;;;5.30;;
37905;SDS011;23739;51.448;6.674;2023-04-25T01:31:14;12.70;;;4.55;;
37905;SDS011;23739;51.448;6.674;2023-04-25T01:33:40;15.73;;;4.82;;
37905;SDS011;23739;51.448;6.674;2023-04-25T01:36:06;11.35;;;5.05;;
37905;SDS011;23739;51.448;6.674;2023-04-25T01:38:32;11.95;;;4.32;;
37905;SDS011;23739;51.448;6.674;2023-04-25T01:40:59;14.20;;;4.55;;
37905;SDS011;23739;51.448;6.674;2023-04-25T01:43:25;10.45;;;4.65;;
37905;SDS011;23739;51.448;6.674;2023-04-25T01:45:51;11.25;;;4.53;;
37905;SDS011;23739;51.448;6.674;2023-04-25T01:48:17;10.77;;;5.60;;
37905;SDS011;23739;51.448;6.674;2023-04-25T01:50:44;15.07;;;4.85;;
37905;SDS011;23739;51.448;6.674;2023-04-25T01:53:10;12.88;;;5.20;;
37905;SDS011;23739;51.448;6.674;2023-04-25T01:55:38;13.20;;;5.45;;
37905;SDS011;23739;51.448;6.674;2023-04-25T01:58:04;11.23;;;6.00;;
37905;SDS011;23739;51.448;6.674;2023-04-25T02:00:36;12.02;;;4.57;;
37905;SDS011;23739;51.448;6.674;2023-04-25T02:03:04;16.05;;;6.28;;
37905;SDS011;23739;51.448;6.674;2023-04-25T02:05:34;9.60;;;4.65;;
37905;SDS011;23739;51.448;6.674;2023-04-25T02:08:00;15.18;;;4.85;;
37905;SDS011;23739;51.448;6.674;2023-04-25T02:10:26;11.40;;;5.15;;
37905;SDS011;23739;51.448;6.674;2023-04-25T02:12:53;17.10;;;5.45;;
37905;SDS011;23739;51.448;6.674;2023-04-25T02:15:19;10.80;;;4.82;;
37905;SDS011;23739;51.448;6.674;2023-04-25T02:17:45;9.18;;;4.25;;
37905;SDS011;23739;51.448;6.674;2023-04-25T02:20:11;10.60;;;4.80;;
37905;SDS011;23739;51.448;6.674;2023-04-25T02:22:37;9.88;;;4.93;;
37905;SDS011;23739;51.448;6.674;2023-04-25T02:25:04;12.13;;;5.10;;
37905;SDS011;23739;51.448;6.674;2023-04-25T02:27:30;12.27;;;5.13;;
37905;SDS011;23739;51.448;6.674;2023-04-25T02:29:56;15.88;;;6.28;;
37905;SDS011;23739;51.448;6.674;2023-04-25T02:32:23;10.35;;;4.78;;
37905;SDS011;23739;51.448;6.674;2023-04-25T02:34:49;11.70;;;4.88;;
37905;SDS011;23739;51.448;6.674;2023-04-25T02:37:15;13.27;;;5.53;;
37905;SDS011;23739;51.448;6.674;2023-04-25T02:39:41;14.43;;;5.15;;
37905;SDS011;23739;51.448;6.674;2023-04-25T02:42:07;10.43;;;4.00;;
37905;SDS011;23739;51.448;6.674;2023-04-25T02:44:33;15.15;;;5.18;;
37905;SDS011;23739;51.448;6.674;2023-04-25T02:46:59;16.70;;;5.28;;
37905;SDS011;23739;51.448;6.674;2023-04-25T02:49:25;9.02;;;4.75;;
37905;SDS011;23739;51.448;6.674;2023-04-25T02:51:51;11.75;;;4.80;;
37905;SDS011;23739;51.448;6.674;2023-04-25T02:54:17;13.95;;;4.68;;
37905;SDS011;23739;51.448;6.674;2023-04-25T02:56:44;10.00;;;4.80;;
37905;SDS011;23739;51.448;6.674;2023-04-25T02:59:10;12.80;;;4.93;;
37905;SDS011;23739;51.448;6.674;2023-04-25T03:01:36;14.95;;;4.78;;
37905;SDS011;23739;51.448;6.674;2023-04-25T03:04:02;13.70;;;5.13;;
37905;SDS011;23739;51.448;6.674;2023-04-25T03:06:28;13.05;;;4.85;;
37905;SDS011;23739;51.448;6.674;2023-04-25T03:08:54;7.90;;;4.28;;
37905;SDS011;23739;51.448;6.674;2023-04-25T03:11:20;15.05;;;5.05;;
37905;SDS011;23739;51.448;6.674;2023-04-25T03:13:46;10.88;;;4.43;;
37905;SDS011;23739;51.448;6.674;2023-04-25T03:16:12;12.07;;;4.45;;
37905;SDS011;23739;51.448;6.674;2023-04-25T03:18:38;8.70;;;4.40;;
37905;SDS011;23739;51.448;6.674;2023-04-25T03:21:04;12.80;;;4.63;;
37905;SDS011;23739;51.448;6.674;2023-04-25T03:23:31;14.05;;;5.22;;
37905;SDS011;23739;51.448;6.674;2023-04-25T03:25:57;13.40;;;6.30;;
37905;SDS011;23739;51.448;6.674;2023-04-25T03:28:23;13.85;;;5.38;;
37905;SDS011;23739;51.448;6.674;2023-04-25T03:30:49;11.82;;;4.85;;
37905;SDS011;23739;51.448;6.674;2023-04-25T03:33:15;11.57;;;4.88;;
37905;SDS011;23739;51.448;6.674;2023-04-25T03:35:41;13.43;;;5.70;;
37905;SDS011;23739;51.448;6.674;2023-04-25T03:38:07;16.85;;;5.38;;
37905;SDS011;23739;51.448;6.674;2023-04-25T03:40:34;14.40;;;5.45;;
37905;SDS011;23739;51.448;6.674;2023-04-25T03:43:00;15.82;;;4.40;;
37905;SDS011;23739;51.448;6.674;2023-04-25T03:45:26;17.30;;;5.30;;
37905;SDS011;23739;51.448;6.674;2023-04-25T03:47:52;11.20;;;4.75;;
37905;SDS011;23739;51.448;6.674;2023-04-25T03:50:18;9.23;;;5.03;;
37905;SDS011;23739;51.448;6.674;2023-04-25T03:52:44;18.05;;;5.82;;
37905;SDS011;23739;51.448;6.674;2023-04-25T03:55:10;14.80;;;5.05;;
37905;SDS011;23739;51.448;6.674;2023-04-25T03:57:36;12.50;;;4.80;;
37905;SDS011;23739;51.448;6.674;2023-04-25T04:00:03;14.77;;;4.72;;
37905;SDS011;23739;51.448;6.674;2023-04-25T04:02:29;13.80;;;4.22;;
37905;SDS011;23739;51.448;6.674;2023-04-25T04:04:55;14.68;;;5.13;;
37905;SDS011;23739;51.448;6.674;2023-04-25T04:07:21;15.10;;;5.43;;
37905;SDS011;23739;51.448;6.674;2023-04-25T04:09:48;16.38;;;5.72;;
37905;SDS011;23739;51.448;6.674;2023-04-25T04:12:14;21.67;;;6.32;;
37905;SDS011;23739;51.448;6.674;2023-04-25T04:14:40;15.98;;;5.97;;
37905;SDS011;23739;51.448;6.674;2023-04-25T04:17:06;13.90;;;5.07;;
37905;SDS011;23739;51.448;6.674;2023-04-25T04:19:32;15.38;;;5.35;;
37905;SDS011;23739;51.448;6.674;2023-04-25T04:21:58;12.20;;;4.50;;
37905;SDS011;23739;51.448;6.674;2023-04-25T04:24:24;24.63;;;7.03;;
37905;SDS011;23739;51.448;6.674;2023-04-25T04:26:50;12.98;;;5.15;;
37905;SDS011;23739;51.448;6.674;2023-04-25T04:29:17;12.35;;;5.05;;
37905;SDS011;23739;51.448;6.674;2023-04-25T04:31:49;15.60;;;4.68;;
37905;SDS011;23739;51.448;6.674;2023-04-25T04:34:15;11.05;;;4.80;;
37905;SDS011;23739;51.448;6.674;2023-04-25T04:36:43;13.25;;;5.85;;
37905;SDS011;23739;51.448;6.674;2023-04-25T04:39:11;17.75;;;6.55;;
37905;SDS011;23739;51.448;6.674;2023-04-25T04:41:38;16.50;;;5.55;;
37905;SDS011;23739;51.448;6.674;2023-04-25T04:44:05;16.77;;;5.80;;
37905;SDS011;23739;51.448;6.674;2023-04-25T04:46:32;16.35;;;4.78;;
37905;SDS011;23739;51.448;6.674;2023-04-25T04:49:04;16.05;;;6.05;;
37905;SDS011;23739;51.448;6.674;2023-04-25T04:51:30;14.10;;;4.93;;
37905;SDS011;23739;51.448;6.674;2023-04-25T04:53:56;9.73;;;4.78;;
37905;SDS011;23739;51.448;6.674;2023-04-25T04:56:23;14.25;;;6.30;;
37905;SDS011;23739;51.448;6.674;2023-04-25T04:58:50;12.95;;;4.75;;
37905;SDS011;23739;51.448;6.674;2023-04-25T05:01:17;15.70;;;5.13;;
37905;SDS011;23739;51.448;6.674;2023-04-25T05:03:43;14.80;;;5.15;;
37905;SDS011;23739;51.448;6.674;2023-04-25T05:06:09;10.68;;;5.30;;
37905;SDS011;23739;51.448;6.674;2023-04-25T05:08:36;12.57;;;5.68;;
37905;SDS011;23739;51.448;6.674;2023-04-25T05:11:02;12.15;;;4.70;;
37905;SDS011;23739;51.448;6.674;2023-04-25T05:13:28;12.43;;;4.80;;
37905;SDS011;23739;51.448;6.674;2023-04-25T05:15:54;11.77;;;4.80;;
37905;SDS011;23739;51.448;6.674;2023-04-25T05:18:20;13.40;;;5.28;;
37905;SDS011;23739;51.448;6.674;2023-04-25T05:20:47;15.25;;;5.35;;
37905;SDS011;23739;51.448;6.674;2023-04-25T05:23:13;18.77;;;5.32;;
37905;SDS011;23739;51.448;6.674;2023-04-25T05:25:39;14.77;;;5.40;;
37905;SDS011;23739;51.448;6.674;2023-04-25T05:28:05;13.98;;;5.63;;
37905;SDS011;23739;51.448;6.674;2023-04-25T05:30:31;10.43;;;4.90;;
37905;SDS011;23739;51.448;6.674;2023-04-25T05:32:57;16.50;;;4.47;;
37905;SDS011;23739;51.448;6.674;2023-04-25T05:35:23;7.88;;;4.95;;
37905;SDS011;23739;51.448;6.674;2023-04-25T05:37:49;12.43;;;4.70;;
37905;SDS011;23739;51.448;6.674;2023-04-25T05:40:15;15.63;;;5.25;;
37905;SDS011;23739;51.448;6.674;2023-04-25T05:42:41;13.23;;;4.35;;
37905;SDS011;23739;51.448;6.674;2023-04-25T05:45:07;12.57;;;4.95;;
37905;SDS011;23739;51.448;6.674;2023-04-25T05:47:34;11.63;;;5.75;;
37905;SDS011;23739;51.448;6.674;2023-04-25T05:50:00;10.68;;;4.03;;
37905;SDS011;23739;51.448;6.674;2023-04-25T05:52:26;15.35;;;4.55;;
37905;SDS011;23739;51.448;6.674;2023-04-25T05:54:52;13.27;;;5.20;;
37905;SDS011;23739;51.448;6.674;2023-04-25T05:57:25;15.68;;;4.75;;
37905;SDS011;23739;51.448;6.674;2023-04-25T05:59:51;13.10;;;3.97;;
37905;SDS011;23739;51.448;6.674;2023-04-25T06:02:18;19.23;;;5.57;;
37905;SDS011;23739;51.448;6.674;2023-04-25T06:04:45;12.93;;;4.32;;
37905;SDS011;23739;51.448;6.674;2023-04-25T06:07:11;12.38;;;4.55;;
37905;SDS011;23739;51.448;6.674;2023-04-25T06:09:38;8.80;;;4.90;;
37905;SDS011;23739;51.448;6.674;2023-04-25T06:12:05;12.32;;;4.85;;
37905;SDS011;23739;51.448;6.674;2023-04-25T06:14:32;14.88;;;4.82;;
37905;SDS011;23739;51.448;6.674;2023-04-25T06:16:58;13.18;;;4.65;;
37905;SDS011;23739;51.448;6.674;2023-04-25T06:19:24;15.43;;;3.80;;
37905;SDS011;23739;51.448;6.674;2023-04-25T06:21:50;12.30;;;4.82;;
37905;SDS011;23739;51.448;6.674;2023-04-25T06:24:16;15.55;;;4.57;;
37905;SDS011;23739;51.448;6.674;2023-04-25T06:26:42;11.55;;;4.13;;
37905;SDS011;23739;51.448;6.674;2023-04-25T06:29:08;15.23;;;5.20;;
37905;SDS011;23739;51.448;6.674;2023-04-25T06:31:35;16.58;;;5.18;;
37905;SDS011;23739;51.448;6.674;2023-04-25T06:34:01;11.13;;;4.88;;
37905;SDS011;23739;51.448;6.674;2023-04-25T06:36:27;14.27;;;4.95;;
37905;SDS011;23739;51.448;6.674;2023-04-25T06:38:53;16.40;;;4.13;;
37905;SDS011;23739;51.448;6.674;2023-04-25T06:41:20;14.05;;;3.78;;
37905;SDS011;23739;51.448;6.674;2023-04-25T06:43:46;18.02;;;5.35;;
37905;SDS011;23739;51.448;6.674;2023-04-25T06:46:12;17.40;;;5.18;;
37905;SDS011;23739;51.448;6.674;2023-04-25T06:48:38;14.80;;;3.90;;
37905;SDS011;23739;51.448;6.674;2023-04-25T06:51:04;13.27;;;5.13;;
37905;SDS011;23739;51.448;6.674;2023-04-25T06:53:30;11.80;;;4.00;;
37905;SDS011;23739;51.448;6.674;2023-04-25T06:55:56;17.17;;;3.63;;
37905;SDS011;23739;51.448;6.674;2023-04-25T06:58:22;9.70;;;3.85;;
37905;SDS011;23739;51.448;6.674;2023-04-25T07:00:49;11.75;;;3.90;;
37905;SDS011;23739;51.448;6.674;2023-04-25T07:03:15;10.30;;;3.80;;
37905;SDS011;23739;51.448;6.674;2023-04-25T07:05:41;13.75;;;4.00;;
37905;SDS011;23739;51.448;6.674;2023-04-25T07:08:07;16.70;;;4.28;;
37905;SDS011;23739;51.448;6.674;2023-04-25T07:10:33;16.95;;;4.90;;
37905;SDS011;23739;51.448;6.674;2023-04-25T07:13:00;10.43;;;3.90;;
37905;SDS011;23739;51.448;6.674;2023-04-25T07:15:26;11.48;;;3.13;;
37905;SDS011;23739;51.448;6.674;2023-04-25T07:17:52;12.68;;;3.10;;
37905;SDS011;23739;51.448;6.674;2023-04-25T07:20:18;11.07;;;4.63;;
37905;SDS011;23739;51.448;6.674;2023-04-25T07:22:44;11.50;;;3.35;;
37905;SDS011;23739;51.448;6.674;2023-04-25T07:25:10;14.27;;;3.78;;
37905;SDS011;23739;51.448;6.674;2023-04-25T07:27:37;12.90;;;4.30;;
37905;SDS011;23739;51.448;6.674;2023-04-25T07:30:04;11.68;;;3.40;;
37905;SDS011;23739;51.448;6.674;2023-04-25T07:32:30;12.45;;;3.63;;
37905;SDS011;23739;51.448;6.674;2023-04-25T07:34:56;13.93;;;4.03;;
37905;SDS011;23739;51.448;6.674;2023-04-25T07:37:23;7.32;;;3.05;;
37905;SDS011;23739;51.448;6.674;2023-04-25T07:39:50;9.70;;;3.10;;
37905;SDS011;23739;51.448;6.674;2023-04-25T07:42:16;9.88;;;3.30;;
37905;SDS011;23739;51.448;6.674;2023-04-25T07:44:42;11.32;;;3.08;;
37905;SDS011;23739;51.448;6.674;2023-04-25T07:47:08;11.32;;;3.47;;
37905;SDS011;23739;51.448;6.674;2023-04-25T07:49:35;12.68;;;3.63;;
37905;SDS011;23739;51.448;6.674;2023-04-25T07:52:02;7.03;;;2.72;;
37905;SDS011;23739;51.448;6.674;2023-04-25T07:54:28;19.45;;;3.70;;
37905;SDS011;23739;51.448;6.674;2023-04-25T07:56:55;9.68;;;3.72;;
37905;SDS011;23739;51.448;6.674;2023-04-25T07:59:21;9.13;;;2.67;;
37905;SDS011;23739;51.448;6.674;2023-04-25T08:01:47;8.35;;;2.95;;
37905;SDS011;23739;51.448;6.674;2023-04-25T08:04:13;10.38;;;2.60;;
37905;SDS011;23739;51.448;6.674;2023-04-25T08:06:39;7.50;;;2.78;;
37905;SDS011;23739;51.448;6.674;2023-04-25T08:09:06;6.22;;;2.28;;
37905;SDS011;23739;51.448;6.674;2023-04-25T08:11:34;8.00;;;2.60;;
37905;SDS011;23739;51.448;6.674;2023-04-25T08:14:00;6.93;;;2.38;;
37905;SDS011;23739;51.448;6.674;2023-04-25T08:16:26;12.48;;;2.97;;
37905;SDS011;23739;51.448;6.674;2023-04-25T08:18:53;7.97;;;2.22;;
37905;SDS011;23739;51.448;6.674;2023-04-25T08:21:19;4.10;;;2.10;;
37905;SDS011;23739;51.448;6.674;2023-04-25T08:23:45;11.93;;;2.97;;
37905;SDS011;23739;51.448;6.674;2023-04-25T08:26:11;10.70;;;2.60;;
37905;SDS011;23739;51.448;6.674;2023-04-25T08:28:37;9.02;;;2.53;;
37905;SDS011;23739;51.448;6.674;2023-04-25T08:31:04;10.30;;;2.92;;
37905;SDS011;23739;51.448;6.674;2023-04-25T08:33:30;11.57;;;3.17;;
37905;SDS011;23739;51.448;6.674;2023-04-25T08:35:57;6.32;;;2.25;;
37905;SDS011;23739;51.448;6.674;2023-04-25T08:38:24;8.30;;;1.90;;
37905;SDS011;23739;51.448;6.674;2023-04-25T08:40:50;10.63;;;2.95;;
37905;SDS011;23739;51.448;6.674;2023-04-25T08:43:17;8.35;;;2.30;;
37905;SDS011;23739;51.448;6.674;2023-04-25T08:45:44;8.80;;;2.53;;
37905;SDS011;23739;51.448;6.674;2023-04-25T08:48:14;5.43;;;1.60;;
37905;SDS011;23739;51.448;6.674;2023-04-25T08:50:51;6.95;;;1.85;;
37905;SDS011;23739;51.448;6.674;2023-04-25T08:53:20;10.45;;;2.25;;
37905;SDS011;23739;51.448;6.674;2023-04-25T08:55:47;8.57;;;1.98;;
37905;SDS011;23739;51.448;6.674;2023-04-25T08:58:14;9.77;;;1.98;;
37905;SDS011;23739;51.448;6.674;2023-04-25T09:00:40;7.90;;;1.40;;
37905;SDS011;23739;51.448;6.674;2023-04-25T09:03:07;9.30;;;2.00;;
37905;SDS011;23739;51.448;6.674;2023-04-25T09:05:33;6.68;;;1.73;;
37905;SDS011;23739;51.448;6.674;2023-04-25T09:08:00;5.47;;;1.50;;
37905;SDS011;23739;51.448;6.674;2023-04-25T09:10:27;15.32;;;2.13;;
37905;SDS011;23739;51.448;6.674;2023-04-25T09:13:09;7.32;;;3.45;;
37905;SDS011;23739;51.448;6.674;2023-04-25T09:15:53;9.40;;;1.60;;
37905;SDS011;23739;51.448;6.674;2023-04-25T09:18:23;12.63;;;2.13;;
37905;SDS011;23739;51.448;6.674;2023-04-25T09:20:53;7.60;;;1.52;;
37905;SDS011;23739;51.448;6.674;2023-04-25T09:23:20;5.95;;;1.88;;
37905;SDS011;23739;51.448;6.674;2023-04-25T09:25:47;7.72;;;1.13;;
37905;SDS011;23739;51.448;6.674;2023-04-25T09:28:13;7.47;;;2.20;;
37905;SDS011;23739;51.448;6.674;2023-04-25T09:30:39;8.48;;;1.70;;
37905;SDS011;23739;51.448;6.674;2023-04-25T09:33:09;8.93;;;2.58;;
37905;SDS011;23739;51.448;6.674;2023-04-25T09:35:40;10.40;;;2.47;;
37905;SDS011;23739;51.448;6.674;2023-04-25T09:38:10;3.63;;;1.10;;
37905;SDS011;23739;51.448;6.674;2023-04-25T09:40:47;5.05;;;1.60;;
37905;SDS011;23739;51.448;6.674;2023-04-25T09:43:21;7.85;;;1.80;;
37905;SDS011;23739;51.448;6.674;2023-04-25T09:45:48;4.30;;;1.35;;
37905;SDS011;23739;51.448;6.674;2023-04-25T09:48:18;3.60;;;1.23;;
37905;SDS011;23739;51.448;6.674;2023-04-25T09:50:45;6.43;;;1.60;;
37905;SDS011;23739;51.448;6.674;2023-04-25T09:53:11;7.93;;;2.38;;
37905;SDS011;23739;51.448;6.674;2023-04-25T09:55:38;5.50;;;1.45;;
37905;SDS011;23739;51.448;6.674;2023-04-25T09:58:04;9.73;;;1.48;;
37905;SDS011;23739;51.448;6.674;2023-04-25T10:00:32;5.57;;;1.23;;
37905;SDS011;23739;51.448;6.674;2023-04-25T10:02:59;4.38;;;1.77;;
37905;SDS011;23739;51.448;6.674;2023-04-25T10:05:27;2.35;;;1.20;;
37905;SDS011;23739;51.448;6.674;2023-04-25T10:07:54;3.65;;;1.38;;
37905;SDS011;23739;51.448;6.674;2023-04-25T10:10:21;6.47;;;1.95;;
37905;SDS011;23739;51.448;6.674;2023-04-25T10:12:51;7.13;;;1.67;;
37905;SDS011;23739;51.448;6.674;2023-04-25T10:15:17;4.85;;;1.45;;
37905;SDS011;23739;51.448;6.674;2023-04-25T10:17:45;8.40;;;1.20;;
37905;SDS011;23739;51.448;6.674;2023-04-25T10:20:11;7.25;;;2.13;;
37905;SDS011;23739;51.448;6.674;2023-04-25T10:22:39;8.20;;;2.00;;
37905;SDS011;23739;51.448;6.674;2023-04-25T10:25:07;1.52;;;0.77;;
37905;SDS011;23739;51.448;6.674;2023-04-25T10:27:34;2.60;;;1.00;;
37905;SDS011;23739;51.448;6.674;2023-04-25T10:30:01;3.50;;;0.95;;
37905;SDS011;23739;51.448;6.674;2023-04-25T10:32:30;5.72;;;1.00;;
37905;SDS011;23739;51.448;6.674;2023-04-25T10:34:57;4.28;;;1.60;;
37905;SDS011;23739;51.448;6.674;2023-04-25T10:37:24;4.28;;;1.25;;
37905;SDS011;23739;51.448;6.674;2023-04-25T10:39:50;4.47;;;1.08;;
37905;SDS011;23739;51.448;6.674;2023-04-25T10:42:18;3.83;;;1.55;;
37905;SDS011;23739;51.448;6.674;2023-04-25T10:45:00;1.83;;;1.10;;
37905;SDS011;23739;51.448;6.674;2023-04-25T10:47:34;3.90;;;1.33;;
37905;SDS011;23739;51.448;6.674;2023-04-25T10:50:04;3.47;;;1.20;;
37905;SDS011;23739;51.448;6.674;2023-04-25T10:52:32;2.38;;;1.20;;
37905;SDS011;23739;51.448;6.674;2023-04-25T10:54:59;6.63;;;1.55;;
37905;SDS011;23739;51.448;6.674;2023-04-25T10:59:58;4.50;;;1.38;;
37905;SDS011;23739;51.448;6.674;2023-04-25T11:02:26;5.78;;;1.45;;
37905;SDS011;23739;51.448;6.674;2023-04-25T11:04:53;6.20;;;2.10;;
37905;SDS011;23739;51.448;6.674;2023-04-25T11:10:02;6.70;;;1.40;;
37905;SDS011;23739;51.448;6.674;2023-04-25T11:12:29;6.07;;;1.55;;
37905;SDS011;23739;51.448;6.674;2023-04-25T11:15:05;5.60;;;1.05;;
37905;SDS011;23739;51.448;6.674;2023-04-25T11:17:32;6.50;;;1.05;;
37905;SDS011;23739;51.448;6.674;2023-04-25T11:19:59;5.30;;;1.55;;
37905;SDS011;23739;51.448;6.674;2023-04-25T11:22:26;4.57;;;1.35;;
37905;SDS011;23739;51.448;6.674;2023-04-25T11:24:52;5.25;;;1.63;;
37905;SDS011;23739;51.448;6.674;2023-04-25T11:27:18;5.53;;;1.95;;
37905;SDS011;23739;51.448;6.674;2023-04-25T11:29:46;3.75;;;1.52;;
37905;SDS011;23739;51.448;6.674;2023-04-25T11:32:15;5.00;;;1.20;;
37905;SDS011;23739;51.448;6.674;2023-04-25T11:34:42;5.80;;;1.15;;
37905;SDS011;23739;51.448;6.674;2023-04-25T11:37:10;3.78;;;1.10;;
37905;SDS011;23739;51.448;6.674;2023-04-25T11:39:38;5.32;;;2.25;;
37905;SDS011;23739;51.448;6.674;2023-04-25T11:42:04;5.93;;;1.63;;
37905;SDS011;23739;51.448;6.674;2023-04-25T11:44:30;5.30;;;1.70;;
37905;SDS011;23739;51.448;6.674;2023-04-25T11:46:57;4.20;;;1.55;;
37905;SDS011;23739;51.448;6.674;2023-04-25T11:49:23;6.78;;;2.00;;
37905;SDS011;23739;51.448;6.674;2023-04-25T11:51:50;5.07;;;1.38;;
37905;SDS011;23739;51.448;6.674;2023-04-25T11:54:16;4.15;;;1.20;;
37905;SDS011;23739;51.448;6.674;2023-04-25T11:56:43;5.30;;;1.75;;
37905;SDS011;23739;51.448;6.674;2023-04-25T11:59:10;6.13;;;2.33;;
37905;SDS011;23739;51.448;6.674;2023-04-25T12:01:37;4.57;;;1.55;;
37905;SDS011;23739;51.448;6.674;2023-04-25T12:06:59;7.53;;;2.33;;
37905;SDS011;23739;51.448;6.674;2023-04-25T12:09:29;5.13;;;1.90;;
37905;SDS011;23739;51.448;6.674;2023-04-25T12:11:57;6.35;;;2.28;;
37905;SDS011;23739;51.448;6.674;2023-04-25T12:14:29;8.55;;;2.33;;
37905;SDS011;23739;51.448;6.674;2023-04-25T12:16:57;6.55;;;2.92;;
37905;SDS011;23739;51.448;6.674;2023-04-25T12:19:31;5.72;;;1.77;;
37905;SDS011;23739;51.448;6.674;2023-04-25T12:21:59;6.32;;;1.50;;
37905;SDS011;23739;51.448;6.674;2023-04-25T12:24:28;3.58;;;1.20;;
37905;SDS011;23739;51.448;6.674;2023-04-25T12:29:25;4.18;;;1.52;;
37905;SDS011;23739;51.448;6.674;2023-04-25T12:31:51;4.93;;;1.50;;
37905;SDS011;23739;51.448;6.674;2023-04-25T12:34:18;5.68;;;1.50;;
37905;SDS011;23739;51.448;6.674;2023-04-25T12:36:44;10.02;;;1.52;;
37905;SDS011;23739;51.448;6.674;2023-04-25T12:39:17;4.72;;;1.40;;
37905;SDS011;23739;51.448;6.674;2023-04-25T12:41:44;2.72;;;1.40;;
37905;SDS011;23739;51.448;6.674;2023-04-25T12:44:11;3.35;;;1.42;;
37905;SDS011;23739;51.448;6.674;2023-04-25T12:46:38;7.25;;;1.55;;
37905;SDS011;23739;51.448;6.674;2023-04-25T12:49:05;3.30;;;1.25;;
37905;SDS011;23739;51.448;6.674;2023-04-25T12:51:33;6.25;;;1.38;;
37905;SDS011;23739;51.448;6.674;2023-04-25T12:54:00;2.78;;;1.52;;
37905;SDS011;23739;51.448;6.674;2023-04-25T12:56:29;2.83;;;1.10;;
37905;SDS011;23739;51.448;6.674;2023-04-25T12:58:55;5.93;;;1.52;;
37905;SDS011;23739;51.448;6.674;2023-04-25T13:01:21;5.25;;;1.00;;
37905;SDS011;23739;51.448;6.674;2023-04-25T13:03:48;3.60;;;1.08;;
37905;SDS011;23739;51.448;6.674;2023-04-25T13:06:14;8.05;;;1.65;;
37905;SDS011;23739;51.448;6.674;2023-04-25T13:08:40;2.63;;;1.00;;
37905;SDS011;23739;51.448;6.674;2023-04-25T13:11:07;3.78;;;1.15;;
37905;SDS011;23739;51.448;6.674;2023-04-25T13:13:33;6.53;;;1.40;;
37905;SDS011;23739;51.448;6.674;2023-04-25T13:16:00;6.13;;;1.40;;
37905;SDS011;23739;51.448;6.674;2023-04-25T13:18:27;6.97;;;2.15;;
37905;SDS011;23739;51.448;6.674;2023-04-25T13:20:53;4.47;;;1.00;;
37905;SDS011;23739;51.448;6.674;2023-04-25T13:23:20;7.30;;;1.98;;
37905;SDS011;23739;51.448;6.674;2023-04-25T13:25:46;4.50;;;1.17;;
37905;SDS011;23739;51.448;6.674;2023-04-25T13:28:15;3.67;;;1.58;;
37905;SDS011;23739;51.448;6.674;2023-04-25T13:30:42;4.47;;;1.55;;
37905;SDS011;23739;51.448;6.674;2023-04-25T13:33:08;6.25;;;1.98;;
37905;SDS011;23739;51.448;6.674;2023-04-25T13:35:37;1.83;;;0.70;;
37905;SDS011;23739;51.448;6.674;2023-04-25T13:38:03;3.97;;;1.13;;
37905;SDS011;23739;51.448;6.674;2023-04-25T13:40:29;2.42;;;0.98;;
37905;SDS011;23739;51.448;6.674;2023-04-25T13:42:57;2.58;;;0.90;;
37905;SDS011;23739;51.448;6.674;2023-04-25T13:45:23;6.13;;;1.70;;
37905;SDS011;23739;51.448;6.674;2023-04-25T13:47:49;3.58;;;1.58;;
37905;SDS011;23739;51.448;6.674;2023-04-25T13:50:16;4.60;;;1.20;;
37905;SDS011;23739;51.448;6.674;2023-04-25T13:52:42;5.90;;;1.40;;
37905;SDS011;23739;51.448;6.674;2023-04-25T13:55:08;4.07;;;0.93;;
37905;SDS011;23739;51.448;6.674;2023-04-25T13:57:35;2.78;;;0.95;;
37905;SDS011;23739;51.448;6.674;2023-04-25T14:00:03;6.97;;;0.82;;
37905;SDS011;23739;51.448;6.674;2023-04-25T14:02:34;3.40;;;0.77;;
37905;SDS011;23739;51.448;6.674;2023-04-25T14:05:00;2.60;;;1.33;;
37905;SDS011;23739;51.448;6.674;2023-04-25T14:07:27;8.43;;;1.20;;
37905;SDS011;23739;51.448;6.674;2023-04-25T14:09:53;3.63;;;0.82;;
37905;SDS011;23739;51.448;6.674;2023-04-25T14:12:19;3.47;;;1.02;;
37905;SDS011;23739;51.448;6.674;2023-04-25T14:14:45;6.00;;;1.88;;
37905;SDS011;23739;51.448;6.674;2023-04-25T14:17:11;6.50;;;1.27;;
37905;SDS011;23739;51.448;6.674;2023-04-25T14:19:38;6.72;;;1.70;;
37905;SDS011;23739;51.448;6.674;2023-04-25T14:22:08;2.60;;;0.90;;
37905;SDS011;23739;51.448;6.674;2023-04-25T14:24:34;4.30;;;1.40;;
37905;SDS011;23739;51.448;6.674;2023-04-25T14:27:01;4.35;;;0.50;;
37905;SDS011;23739;51.448;6.674;2023-04-25T14:29:27;2.20;;;0.73;;
37905;SDS011;23739;51.448;6.674;2023-04-25T14:31:53;6.10;;;1.35;;
37905;SDS011;23739;51.448;6.674;2023-04-25T14:34:19;4.63;;;1.90;;
37905;SDS011;23739;51.448;6.674;2023-04-25T14:36:45;7.20;;;1.08;;
37905;SDS011;23739;51.448;6.674;2023-04-25T14:39:12;2.97;;;1.00;;
37905;SDS011;23739;51.448;6.674;2023-04-25T14:41:39;2.35;;;1.30;;
37905;SDS011;23739;51.448;6.674;2023-04-25T14:44:05;6.07;;;1.15;;
37905;SDS011;23739;51.448;6.674;2023-04-25T14:46:32;6.82;;;1.75;;
37905;SDS011;23739;51.448;6.674;2023-04-25T14:48:58;3.78;;;1.50;;